Decoy, Kentucky
Current Conditions -  °F | °C
As of 5:53 AM on Sunday 21 Dec 2014 (Local Time) from KJKL Reporting Station
Clear Clear  
Wind Chill: 22°   Ceiling: Unl
Heat Index: 27°   Visibility: 7mi
Dew Point: 23°   Wind: 5mph
Humidity: 85%   Direction: 40°NE
Pressure: 30.25"   Gusts: NA
Location:  37.532°N, 83.3068°W
Report Text: KJKL 211053Z AUTO 04004KT 7SM CLR M03/M05 A3025 RMK AO2 SLP255 I1000 T10281050
Loading
Personal Weather Stations






























Interactive Weather Map New forecast layout! Learn more

10-Day Weather Forecast

Advertisements
Track Severe Weather on mobile